Belknap, Illinois
Current Conditions -  °F | °C
As of 3:35 AM on Monday 24 Nov 2014 (Local Time) from KM30 Reporting Station
Overcast Overcast  
Wind Chill: 61°   Ceiling: 2200
Heat Index: 61°   Visibility: 10mi
Dew Point: 58°   Wind: 18mph
Humidity: 89%   Direction: 220°SW
Pressure: 29.3"   Gusts: 28mph
Location:  37.33°N, 88.94°W
Report Text: KM30 240935Z AUTO 22016G24KT 10SM BKN022 BKN030 OVC070 16/14 A2930 RMK AO2 LTG DSNT NE AND NW T01600142
Loading
Personal Weather Stations






























Interactive Weather Map New forecast layout! Learn more

10-Day Weather Forecast

Advertisements
Track Severe Weather on mobile